MT WASHINGTON (MTW)

Elevation: 920' · LOS ANGELES R basin · Operator: Los Angeles County Fire Dept

Query executed Friday at 16:44:49   clock

Provisional data, subject to change.
Select a sensor type for a plot of data.

Earlier

Date   /   Time   RAIN     TEMP     REL HUM     BAR PRE     FUEL MS     FUEL TP     WIND SP     WIND DR     PEAK WS     PEAK WD     SOLAR R     BAT VOL    
(PST)INCHES   DEG F   %   INCHES   %   DEG F   MPH   DEG   MPH   DEG   W/M^2   VOLTS  
11/27/2014 17:00 0.34 75 12 -- 3 71 -- -- -- -- 0.00 12.5
11/27/2014 18:00 0.34 75 11 -- 3 72 -- -- -- -- 0.00 12.5
11/27/2014 19:00 0.34 72 17 -- 3 70 -- -- -- -- 0.00 12.5
11/27/2014 20:00 0.34 70 18 -- 3 68 -- -- -- -- 0.00 12.5
11/27/2014 21:00 0.34 71 19 -- 3 67 -- -- -- -- 0.00 12.4
11/27/2014 22:00 0.34 71 14 -- 3 68 -- -- -- -- 0.00 12.4
11/27/2014 23:00 0.34 68 15 -- 3 67 -- -- -- -- 0.00 12.4
11/28/2014 00:00 0.34 70 12 -- 3 67 -- -- -- -- 0.00 12.4
11/28/2014 01:00 0.34 67 16 -- 3 65 -- -- -- -- 0.00 12.4
11/28/2014 02:00 0.34 70 12 -- 3 66 -- -- -- -- 0.00 12.3
11/28/2014 03:00 0.34 65 15 -- 3 63 -- -- -- -- 0.00 12.3
11/28/2014 04:00 0.34 67 12 -- 3 63 -- -- -- -- 0.00 12.3
11/28/2014 05:00 0.34 68 11 -- 3 64 -- -- -- -- 0.00 12.3
11/28/2014 06:00 0.34 63 17 -- 3 61 -- -- -- -- 4.00 12.3
11/28/2014 07:00 0.34 70 12 -- 3 67 -- -- -- -- 32.00 12.4
11/28/2014 08:00 0.34 75 11 -- 3 79 -- -- -- -- 311.00 13.4
11/28/2014 09:00 0.34 80 10 -- 3 81 -- -- -- -- 473.00 13.4
11/28/2014 10:00 0.34 80 10 -- 3 85 -- -- -- -- 579.00 13.4
11/28/2014 11:00 0.34 82 10 -- 3 93 -- -- -- -- 597.00 13.4
11/28/2014 12:00 0.34 81 11 -- 3 97 -- -- -- -- 569.00 13.4
11/28/2014 13:00 0.34 81 13 -- 3 84 -- -- -- -- 482.00 13.4
11/28/2014 14:00 0.34 82 12 -- 3 81 -- -- -- -- 341.00 13.4
11/28/2014 15:00 0.34 78 22 -- 3 75 -- -- -- -- 164.00 13.0
11/28/2014 16:00 -- -- -- -- -- -- -- -- -- -- -- --

Later | Latest

Warning! This data is preliminary and subject to revision.

Show MTW Map | 24 Hours MTW Data | Plot all MTW Sensors | Daily MTW Data | MTW Info